sensor_id;sensor_type;location;lat;lon;timestamp;pressure;altitude;pressure_sealevel;temperature;humidity
57562;BME280;43397;51.530;5.974;2023-03-21T00:02:03;59163.31;;;-145.90;100.00
57562;BME280;43397;51.530;5.974;2023-03-21T00:04:29;59163.31;;;-145.90;100.00
57562;BME280;43397;51.530;5.974;2023-03-21T00:06:55;59163.31;;;-145.90;100.00
57562;BME280;43397;51.530;5.974;2023-03-21T00:09:21;59163.31;;;-145.90;100.00
57562;BME280;43397;51.530;5.974;2023-03-21T00:11:47;59163.31;;;-145.90;100.00
57562;BME280;43397;51.530;5.974;2023-03-21T00:14:13;59163.31;;;-145.90;100.00
57562;BME280;43397;51.530;5.974;2023-03-21T00:16:39;59163.31;;;-145.90;100.00
57562;BME280;43397;51.530;5.974;2023-03-21T00:19:06;59163.31;;;-145.90;100.00
57562;BME280;43397;51.530;5.974;2023-03-21T00:21:32;59163.31;;;-145.90;100.00
57562;BME280;43397;51.530;5.974;2023-03-21T00:23:58;59163.31;;;-145.90;100.00
57562;BME280;43397;51.530;5.974;2023-03-21T00:26:25;59163.31;;;-145.90;100.00
57562;BME280;43397;51.530;5.974;2023-03-21T00:28:51;59163.31;;;-145.90;100.00
57562;BME280;43397;51.530;5.974;2023-03-21T00:31:17;59163.31;;;-145.90;100.00
57562;BME280;43397;51.530;5.974;2023-03-21T00:33:43;59163.31;;;-145.90;100.00
57562;BME280;43397;51.530;5.974;2023-03-21T00:36:11;59163.31;;;-145.90;100.00
57562;BME280;43397;51.530;5.974;2023-03-21T00:38:37;59163.31;;;-145.90;100.00
57562;BME280;43397;51.530;5.974;2023-03-21T00:41:03;59163.31;;;-145.90;100.00
57562;BME280;43397;51.530;5.974;2023-03-21T00:43:29;59163.31;;;-145.90;100.00
57562;BME280;43397;51.530;5.974;2023-03-21T00:45:56;59163.31;;;-145.90;100.00
57562;BME280;43397;51.530;5.974;2023-03-21T00:48:22;59163.31;;;-145.90;100.00
57562;BME280;43397;51.530;5.974;2023-03-21T00:50:49;59163.31;;;-145.90;100.00
57562;BME280;43397;51.530;5.974;2023-03-21T00:53:17;59163.31;;;-145.90;100.00
57562;BME280;43397;51.530;5.974;2023-03-21T00:55:43;59163.31;;;-145.90;100.00
57562;BME280;43397;51.530;5.974;2023-03-21T00:58:09;59163.31;;;-145.90;100.00
57562;BME280;43397;51.530;5.974;2023-03-21T01:00:35;59163.31;;;-145.90;100.00
57562;BME280;43397;51.530;5.974;2023-03-21T01:03:02;59163.31;;;-145.90;100.00
57562;BME280;43397;51.530;5.974;2023-03-21T01:05:29;59163.31;;;-145.90;100.00
57562;BME280;43397;51.530;5.974;2023-03-21T01:07:55;59163.31;;;-145.90;100.00
57562;BME280;43397;51.530;5.974;2023-03-21T01:10:22;59163.31;;;-145.90;100.00
57562;BME280;43397;51.530;5.974;2023-03-21T01:12:47;59163.31;;;-145.90;100.00
57562;BME280;43397;51.530;5.974;2023-03-21T01:15:13;59163.31;;;-145.90;100.00
57562;BME280;43397;51.530;5.974;2023-03-21T01:17:38;59163.31;;;-145.90;100.00
57562;BME280;43397;51.530;5.974;2023-03-21T01:20:05;59163.31;;;-145.90;100.00
57562;BME280;43397;51.530;5.974;2023-03-21T01:22:30;59163.31;;;-145.90;100.00
57562;BME280;43397;51.530;5.974;2023-03-21T01:24:56;59163.31;;;-145.90;100.00
57562;BME280;43397;51.530;5.974;2023-03-21T01:27:23;59163.31;;;-145.90;100.00
57562;BME280;43397;51.530;5.974;2023-03-21T01:29:49;59163.31;;;-145.90;100.00
57562;BME280;43397;51.530;5.974;2023-03-21T01:32:14;59163.31;;;-145.90;100.00
57562;BME280;43397;51.530;5.974;2023-03-21T01:34:40;59163.31;;;-145.90;100.00
57562;BME280;43397;51.530;5.974;2023-03-21T01:37:06;59163.31;;;-145.90;100.00
57562;BME280;43397;51.530;5.974;2023-03-21T01:39:31;59163.31;;;-145.90;100.00
57562;BME280;43397;51.530;5.974;2023-03-21T01:41:57;59163.31;;;-145.90;100.00
57562;BME280;43397;51.530;5.974;2023-03-21T01:44:24;59163.31;;;-145.90;100.00
57562;BME280;43397;51.530;5.974;2023-03-21T01:46:50;59163.31;;;-145.90;100.00
57562;BME280;43397;51.530;5.974;2023-03-21T01:49:19;59163.31;;;-145.90;100.00
57562;BME280;43397;51.530;5.974;2023-03-21T01:51:50;59163.31;;;-145.90;100.00
57562;BME280;43397;51.530;5.974;2023-03-21T01:54:21;59163.31;;;-145.90;100.00
57562;BME280;43397;51.530;5.974;2023-03-21T01:56:49;59163.31;;;-145.90;100.00
57562;BME280;43397;51.530;5.974;2023-03-21T01:59:18;59163.31;;;-145.90;100.00
57562;BME280;43397;51.530;5.974;2023-03-21T02:01:47;59163.31;;;-145.90;100.00
57562;BME280;43397;51.530;5.974;2023-03-21T02:04:13;59163.31;;;-145.90;100.00
57562;BME280;43397;51.530;5.974;2023-03-21T02:06:45;59163.31;;;-145.90;100.00
57562;BME280;43397;51.530;5.974;2023-03-21T02:09:16;59163.31;;;-145.90;100.00
57562;BME280;43397;51.530;5.974;2023-03-21T02:11:43;59163.31;;;-145.90;100.00
57562;BME280;43397;51.530;5.974;2023-03-21T02:14:12;59163.31;;;-145.90;100.00
57562;BME280;43397;51.530;5.974;2023-03-21T02:16:42;59163.31;;;-145.90;100.00
57562;BME280;43397;51.530;5.974;2023-03-21T02:22:30;59163.31;;;-145.90;100.00
57562;BME280;43397;51.530;5.974;2023-03-21T02:28:01;59163.31;;;-145.90;100.00
57562;BME280;43397;51.530;5.974;2023-03-21T02:30:39;59163.31;;;-145.90;100.00
57562;BME280;43397;51.530;5.974;2023-03-21T02:33:21;59163.31;;;-145.90;100.00
57562;BME280;43397;51.530;5.974;2023-03-21T02:36:02;59163.31;;;-145.90;100.00
57562;BME280;43397;51.530;5.974;2023-03-21T02:38:39;59163.31;;;-145.90;100.00
57562;BME280;43397;51.530;5.974;2023-03-21T02:41:15;59163.31;;;-145.90;100.00
57562;BME280;43397;51.530;5.974;2023-03-21T02:43:44;59163.31;;;-145.90;100.00
57562;BME280;43397;51.530;5.974;2023-03-21T02:46:15;59163.31;;;-145.90;100.00
57562;BME280;43397;51.530;5.974;2023-03-21T02:48:48;59163.31;;;-145.90;100.00
57562;BME280;43397;51.530;5.974;2023-03-21T02:51:17;59163.31;;;-145.90;100.00
57562;BME280;43397;51.530;5.974;2023-03-21T02:53:48;59163.31;;;-145.90;100.00
57562;BME280;43397;51.530;5.974;2023-03-21T02:56:15;59163.31;;;-145.90;100.00
57562;BME280;43397;51.530;5.974;2023-03-21T02:58:42;59163.31;;;-145.90;100.00
57562;BME280;43397;51.530;5.974;2023-03-21T03:01:08;59163.31;;;-145.90;100.00
57562;BME280;43397;51.530;5.974;2023-03-21T03:03:33;59163.31;;;-145.90;100.00
57562;BME280;43397;51.530;5.974;2023-03-21T03:06:00;59163.31;;;-145.90;100.00
57562;BME280;43397;51.530;5.974;2023-03-21T03:08:33;59163.31;;;-145.90;100.00
57562;BME280;43397;51.530;5.974;2023-03-21T03:11:13;59163.31;;;-145.90;100.00
57562;BME280;43397;51.530;5.974;2023-03-21T03:13:54;59163.31;;;-145.90;100.00
57562;BME280;43397;51.530;5.974;2023-03-21T03:16:27;59163.31;;;-145.90;100.00
57562;BME280;43397;51.530;5.974;2023-03-21T03:18:58;59163.31;;;-145.90;100.00
57562;BME280;43397;51.530;5.974;2023-03-21T03:21:27;59163.31;;;-145.90;100.00
57562;BME280;43397;51.530;5.974;2023-03-21T03:23:56;59163.31;;;-145.90;100.00
57562;BME280;43397;51.530;5.974;2023-03-21T03:26:29;59163.31;;;-145.90;100.00
57562;BME280;43397;51.530;5.974;2023-03-21T03:29:00;59163.31;;;-145.90;100.00
57562;BME280;43397;51.530;5.974;2023-03-21T03:31:31;59163.31;;;-145.90;100.00
57562;BME280;43397;51.530;5.974;2023-03-21T03:34:02;59163.31;;;-145.90;100.00
57562;BME280;43397;51.530;5.974;2023-03-21T03:36:34;59163.31;;;-145.90;100.00
57562;BME280;43397;51.530;5.974;2023-03-21T03:39:02;59163.31;;;-145.90;100.00
57562;BME280;43397;51.530;5.974;2023-03-21T03:41:33;59163.31;;;-145.90;100.00
57562;BME280;43397;51.530;5.974;2023-03-21T03:44:02;59163.31;;;-145.90;100.00
57562;BME280;43397;51.530;5.974;2023-03-21T03:46:30;59163.31;;;-145.90;100.00
57562;BME280;43397;51.530;5.974;2023-03-21T03:48:59;59163.31;;;-145.90;100.00
57562;BME280;43397;51.530;5.974;2023-03-21T03:51:30;59163.31;;;-145.90;100.00
57562;BME280;43397;51.530;5.974;2023-03-21T03:54:00;59163.31;;;-145.90;100.00
57562;BME280;43397;51.530;5.974;2023-03-21T03:56:29;59163.31;;;-145.90;100.00
57562;BME280;43397;51.530;5.974;2023-03-21T03:58:56;59163.31;;;-145.90;100.00
57562;BME280;43397;51.530;5.974;2023-03-21T04:01:22;59163.31;;;-145.90;100.00
57562;BME280;43397;51.530;5.974;2023-03-21T04:03:48;59163.31;;;-145.90;100.00
57562;BME280;43397;51.530;5.974;2023-03-21T04:06:14;59163.31;;;-145.90;100.00
57562;BME280;43397;51.530;5.974;2023-03-21T04:08:40;59163.31;;;-145.90;100.00
57562;BME280;43397;51.530;5.974;2023-03-21T04:11:05;59163.31;;;-145.90;100.00
57562;BME280;43397;51.530;5.974;2023-03-21T04:13:33;59163.31;;;-145.90;100.00
57562;BME280;43397;51.530;5.974;2023-03-21T04:15:58;59163.31;;;-145.90;100.00
57562;BME280;43397;51.530;5.974;2023-03-21T04:18:24;59163.31;;;-145.90;100.00
57562;BME280;43397;51.530;5.974;2023-03-21T04:20:50;59163.31;;;-145.90;100.00
57562;BME280;43397;51.530;5.974;2023-03-21T04:23:16;59163.31;;;-145.90;100.00
57562;BME280;43397;51.530;5.974;2023-03-21T04:25:42;59163.31;;;-145.90;100.00
57562;BME280;43397;51.530;5.974;2023-03-21T04:28:07;59163.31;;;-145.90;100.00
57562;BME280;43397;51.530;5.974;2023-03-21T04:30:35;59163.31;;;-145.90;100.00
57562;BME280;43397;51.530;5.974;2023-03-21T04:33:00;59163.31;;;-145.90;100.00
57562;BME280;43397;51.530;5.974;2023-03-21T04:35:26;59163.31;;;-145.90;100.00
57562;BME280;43397;51.530;5.974;2023-03-21T04:37:52;59163.31;;;-145.90;100.00
57562;BME280;43397;51.530;5.974;2023-03-21T04:40:18;59163.31;;;-145.90;100.00
57562;BME280;43397;51.530;5.974;2023-03-21T04:42:45;59163.31;;;-145.90;100.00
57562;BME280;43397;51.530;5.974;2023-03-21T04:45:11;59163.31;;;-145.90;100.00
57562;BME280;43397;51.530;5.974;2023-03-21T04:47:38;59163.31;;;-145.90;100.00
57562;BME280;43397;51.530;5.974;2023-03-21T04:50:04;59163.31;;;-145.90;100.00
57562;BME280;43397;51.530;5.974;2023-03-21T04:52:30;59163.31;;;-145.90;100.00
57562;BME280;43397;51.530;5.974;2023-03-21T04:54:55;59163.31;;;-145.90;100.00
57562;BME280;43397;51.530;5.974;2023-03-21T04:57:21;59163.31;;;-145.90;100.00
57562;BME280;43397;51.530;5.974;2023-03-21T04:59:47;59163.31;;;-145.90;100.00
57562;BME280;43397;51.530;5.974;2023-03-21T05:02:12;59163.31;;;-145.90;100.00
57562;BME280;43397;51.530;5.974;2023-03-21T05:04:39;59163.31;;;-145.90;100.00
57562;BME280;43397;51.530;5.974;2023-03-21T05:07:06;59163.31;;;-145.90;100.00
57562;BME280;43397;51.530;5.974;2023-03-21T05:09:32;59163.31;;;-145.90;100.00
57562;BME280;43397;51.530;5.974;2023-03-21T05:11:57;59163.31;;;-145.90;100.00
57562;BME280;43397;51.530;5.974;2023-03-21T05:14:25;59163.31;;;-145.90;100.00
57562;BME280;43397;51.530;5.974;2023-03-21T05:16:51;59163.31;;;-145.90;100.00
57562;BME280;43397;51.530;5.974;2023-03-21T05:19:17;59163.31;;;-145.90;100.00
57562;BME280;43397;51.530;5.974;2023-03-21T05:21:45;59163.31;;;-145.90;100.00
57562;BME280;43397;51.530;5.974;2023-03-21T05:24:13;59163.31;;;-145.90;100.00
57562;BME280;43397;51.530;5.974;2023-03-21T05:26:39;59163.31;;;-145.90;100.00
57562;BME280;43397;51.530;5.974;2023-03-21T05:29:06;59163.31;;;-145.90;100.00
57562;BME280;43397;51.530;5.974;2023-03-21T05:31:32;59163.31;;;-145.90;100.00
57562;BME280;43397;51.530;5.974;2023-03-21T05:33:58;59163.31;;;-145.90;100.00
57562;BME280;43397;51.530;5.974;2023-03-21T05:36:23;59163.31;;;-145.90;100.00
57562;BME280;43397;51.530;5.974;2023-03-21T05:38:51;59163.31;;;-145.90;100.00
57562;BME280;43397;51.530;5.974;2023-03-21T05:41:17;59163.31;;;-145.90;100.00
57562;BME280;43397;51.530;5.974;2023-03-21T05:43:43;59163.31;;;-145.90;100.00
57562;BME280;43397;51.530;5.974;2023-03-21T05:46:09;59163.31;;;-145.90;100.00
57562;BME280;43397;51.530;5.974;2023-03-21T05:48:35;59163.31;;;-145.90;100.00
57562;BME280;43397;51.530;5.974;2023-03-21T05:51:00;59163.31;;;-145.90;100.00
57562;BME280;43397;51.530;5.974;2023-03-21T05:53:26;59163.31;;;-145.90;100.00
57562;BME280;43397;51.530;5.974;2023-03-21T05:55:53;59163.31;;;-145.90;100.00
57562;BME280;43397;51.530;5.974;2023-03-21T05:58:19;59163.31;;;-145.90;100.00
57562;BME280;43397;51.530;5.974;2023-03-21T06:00:45;59163.31;;;-145.90;100.00
57562;BME280;43397;51.530;5.974;2023-03-21T06:03:10;59163.31;;;-145.90;100.00
57562;BME280;43397;51.530;5.974;2023-03-21T06:05:36;59163.31;;;-145.90;100.00
57562;BME280;43397;51.530;5.974;2023-03-21T06:08:02;59163.31;;;-145.90;100.00
57562;BME280;43397;51.530;5.974;2023-03-21T06:10:28;59163.31;;;-145.90;100.00
57562;BME280;43397;51.530;5.974;2023-03-21T06:12:55;59163.31;;;-145.90;100.00
57562;BME280;43397;51.530;5.974;2023-03-21T06:15:21;59163.31;;;-145.90;100.00
57562;BME280;43397;51.530;5.974;2023-03-21T06:17:47;59163.31;;;-145.90;100.00
57562;BME280;43397;51.530;5.974;2023-03-21T06:20:13;59163.31;;;-145.90;100.00
57562;BME280;43397;51.530;5.974;2023-03-21T06:22:38;59163.31;;;-145.90;100.00
57562;BME280;43397;51.530;5.974;2023-03-21T06:25:05;59163.31;;;-145.90;100.00
57562;BME280;43397;51.530;5.974;2023-03-21T06:27:31;59163.31;;;-145.90;100.00
57562;BME280;43397;51.530;5.974;2023-03-21T06:29:58;59163.31;;;-145.90;100.00
57562;BME280;43397;51.530;5.974;2023-03-21T06:32:25;59163.31;;;-145.90;100.00
57562;BME280;43397;51.530;5.974;2023-03-21T06:34:51;59163.31;;;-145.90;100.00
57562;BME280;43397;51.530;5.974;2023-03-21T06:37:17;59163.31;;;-145.90;100.00
57562;BME280;43397;51.530;5.974;2023-03-21T06:39:43;59163.31;;;-145.90;100.00
57562;BME280;43397;51.530;5.974;2023-03-21T06:42:09;59163.31;;;-145.90;100.00
57562;BME280;43397;51.530;5.974;2023-03-21T06:44:35;59163.31;;;-145.90;100.00
57562;BME280;43397;51.530;5.974;2023-03-21T06:47:02;59163.31;;;-145.90;100.00
57562;BME280;43397;51.530;5.974;2023-03-21T06:49:27;59163.31;;;-145.90;100.00
57562;BME280;43397;51.530;5.974;2023-03-21T06:51:53;59163.31;;;-145.90;100.00
57562;BME280;43397;51.530;5.974;2023-03-21T06:54:19;59163.31;;;-145.90;100.00
57562;BME280;43397;51.530;5.974;2023-03-21T06:56:45;59163.31;;;-145.90;100.00
57562;BME280;43397;51.530;5.974;2023-03-21T06:59:10;59163.31;;;-145.90;100.00
57562;BME280;43397;51.530;5.974;2023-03-21T07:01:36;59163.31;;;-145.90;100.00
57562;BME280;43397;51.530;5.974;2023-03-21T07:04:04;59163.31;;;-145.90;100.00
57562;BME280;43397;51.530;5.974;2023-03-21T07:06:30;59163.31;;;-145.90;100.00
57562;BME280;43397;51.530;5.974;2023-03-21T07:08:55;59163.31;;;-145.90;100.00
57562;BME280;43397;51.530;5.974;2023-03-21T07:11:22;59163.31;;;-145.90;100.00
57562;BME280;43397;51.530;5.974;2023-03-21T07:13:48;59163.31;;;-145.90;100.00
57562;BME280;43397;51.530;5.974;2023-03-21T07:16:15;59163.31;;;-145.90;100.00
57562;BME280;43397;51.530;5.974;2023-03-21T07:18:41;59163.31;;;-145.90;100.00
57562;BME280;43397;51.530;5.974;2023-03-21T07:21:08;59163.31;;;-145.90;100.00
57562;BME280;43397;51.530;5.974;2023-03-21T07:23:34;59163.31;;;-145.90;100.00
57562;BME280;43397;51.530;5.974;2023-03-21T07:26:00;59163.31;;;-145.90;100.00
57562;BME280;43397;51.530;5.974;2023-03-21T07:28:26;59163.31;;;-145.90;100.00
57562;BME280;43397;51.530;5.974;2023-03-21T07:30:54;59163.31;;;-145.90;100.00
57562;BME280;43397;51.530;5.974;2023-03-21T07:33:20;59163.31;;;-145.90;100.00
57562;BME280;43397;51.530;5.974;2023-03-21T07:35:46;59163.31;;;-145.90;100.00
57562;BME280;43397;51.530;5.974;2023-03-21T07:38:13;59163.31;;;-145.90;100.00
57562;BME280;43397;51.530;5.974;2023-03-21T07:40:39;59163.31;;;-145.90;100.00
57562;BME280;43397;51.530;5.974;2023-03-21T07:43:04;59163.31;;;-145.90;100.00
57562;BME280;43397;51.530;5.974;2023-03-21T07:45:30;59163.31;;;-145.90;100.00
57562;BME280;43397;51.530;5.974;2023-03-21T07:47:56;59163.31;;;-145.90;100.00
57562;BME280;43397;51.530;5.974;2023-03-21T07:50:21;59163.31;;;-145.90;100.00
57562;BME280;43397;51.530;5.974;2023-03-21T07:52:47;59163.31;;;-145.90;100.00
57562;BME280;43397;51.530;5.974;2023-03-21T07:55:15;59163.31;;;-145.90;100.00
57562;BME280;43397;51.530;5.974;2023-03-21T07:57:40;59163.31;;;-145.90;100.00
57562;BME280;43397;51.530;5.974;2023-03-21T08:00:07;59163.31;;;-145.90;100.00
57562;BME280;43397;51.530;5.974;2023-03-21T08:02:33;59163.31;;;-145.90;100.00
57562;BME280;43397;51.530;5.974;2023-03-21T08:04:59;59163.31;;;-145.90;100.00
57562;BME280;43397;51.530;5.974;2023-03-21T08:07:24;59163.31;;;-145.90;100.00
57562;BME280;43397;51.530;5.974;2023-03-21T08:09:50;59163.31;;;-145.90;100.00
57562;BME280;43397;51.530;5.974;2023-03-21T08:12:17;59163.31;;;-145.90;100.00
57562;BME280;43397;51.530;5.974;2023-03-21T08:14:43;59163.31;;;-145.90;100.00
57562;BME280;43397;51.530;5.974;2023-03-21T08:17:09;59163.31;;;-145.90;100.00
57562;BME280;43397;51.530;5.974;2023-03-21T08:19:35;59163.31;;;-145.90;100.00
57562;BME280;43397;51.530;5.974;2023-03-21T08:22:00;59163.31;;;-145.90;100.00
57562;BME280;43397;51.530;5.974;2023-03-21T08:24:26;59163.31;;;-145.90;100.00
57562;BME280;43397;51.530;5.974;2023-03-21T08:26:52;59163.31;;;-145.90;100.00
57562;BME280;43397;51.530;5.974;2023-03-21T08:29:19;59163.31;;;-145.90;100.00
57562;BME280;43397;51.530;5.974;2023-03-21T08:31:45;59163.31;;;-145.90;100.00
57562;BME280;43397;51.530;5.974;2023-03-21T08:34:11;59163.31;;;-145.90;100.00
57562;BME280;43397;51.530;5.974;2023-03-21T08:36:36;59163.31;;;-145.90;100.00
57562;BME280;43397;51.530;5.974;2023-03-21T08:39:02;59163.31;;;-145.90;100.00
57562;BME280;43397;51.530;5.974;2023-03-21T08:41:28;59163.31;;;-145.90;100.00
57562;BME280;43397;51.530;5.974;2023-03-21T08:43:54;59163.31;;;-145.90;100.00
57562;BME280;43397;51.530;5.974;2023-03-21T08:46:21;59163.31;;;-145.90;100.00
57562;BME280;43397;51.530;5.974;2023-03-21T08:48:47;59163.31;;;-145.90;100.00
57562;BME280;43397;51.530;5.974;2023-03-21T08:51:13;59163.31;;;-145.90;100.00
57562;BME280;43397;51.530;5.974;2023-03-21T08:53:39;59163.31;;;-145.90;100.00
57562;BME280;43397;51.530;5.974;2023-03-21T08:56:05;59163.31;;;-145.90;100.00
57562;BME280;43397;51.530;5.974;2023-03-21T08:58:31;59163.31;;;-145.90;100.00
57562;BME280;43397;51.530;5.974;2023-03-21T09:00:56;59163.31;;;-145.90;100.00
57562;BME280;43397;51.530;5.974;2023-03-21T09:03:23;59163.31;;;-145.90;100.00
57562;BME280;43397;51.530;5.974;2023-03-21T09:05:51;59163.31;;;-145.90;100.00
57562;BME280;43397;51.530;5.974;2023-03-21T09:08:17;59163.31;;;-145.90;100.00
57562;BME280;43397;51.530;5.974;2023-03-21T09:10:42;59163.31;;;-145.90;100.00
57562;BME280;43397;51.530;5.974;2023-03-21T09:13:08;59163.31;;;-145.90;100.00
57562;BME280;43397;51.530;5.974;2023-03-21T09:15:34;59163.31;;;-145.90;100.00
57562;BME280;43397;51.530;5.974;2023-03-21T09:17:59;59163.31;;;-145.90;100.00
57562;BME280;43397;51.530;5.974;2023-03-21T09:20:26;59163.31;;;-145.90;100.00
57562;BME280;43397;51.530;5.974;2023-03-21T09:22:52;59163.31;;;-145.90;100.00
57562;BME280;43397;51.530;5.974;2023-03-21T09:25:18;59163.31;;;-145.90;100.00
57562;BME280;43397;51.530;5.974;2023-03-21T09:27:44;59163.31;;;-145.90;100.00
57562;BME280;43397;51.530;5.974;2023-03-21T09:30:11;59163.31;;;-145.90;100.00
57562;BME280;43397;51.530;5.974;2023-03-21T09:32:37;59163.31;;;-145.90;100.00
57562;BME280;43397;51.530;5.974;2023-03-21T09:35:03;59163.31;;;-145.90;100.00
57562;BME280;43397;51.530;5.974;2023-03-21T09:37:30;59163.31;;;-145.90;100.00
57562;BME280;43397;51.530;5.974;2023-03-21T09:39:55;59163.31;;;-145.90;100.00
57562;BME280;43397;51.530;5.974;2023-03-21T09:42:30;59163.31;;;-145.90;100.00
57562;BME280;43397;51.530;5.974;2023-03-21T09:45:04;59163.31;;;-145.90;100.00
57562;BME280;43397;51.530;5.974;2023-03-21T09:47:37;59163.31;;;-145.90;100.00
57562;BME280;43397;51.530;5.974;2023-03-21T09:50:10;59163.31;;;-145.90;100.00
57562;BME280;43397;51.530;5.974;2023-03-21T09:52:42;59163.31;;;-145.90;100.00
57562;BME280;43397;51.530;5.974;2023-03-21T09:55:16;59163.31;;;-145.90;100.00
57562;BME280;43397;51.530;5.974;2023-03-21T09:57:43;59163.31;;;-145.90;100.00
57562;BME280;43397;51.530;5.974;2023-03-21T10:00:15;59163.31;;;-145.90;100.00
57562;BME280;43397;51.530;5.974;2023-03-21T10:02:44;59163.31;;;-145.90;100.00
57562;BME280;43397;51.530;5.974;2023-03-21T10:05:16;59163.31;;;-145.90;100.00
57562;BME280;43397;51.530;5.974;2023-03-21T10:07:45;59163.31;;;-145.90;100.00
57562;BME280;43397;51.530;5.974;2023-03-21T10:10:18;59163.31;;;-145.90;100.00
57562;BME280;43397;51.530;5.974;2023-03-21T10:12:45;59163.31;;;-145.90;100.00
57562;BME280;43397;51.530;5.974;2023-03-21T10:15:16;59163.31;;;-145.90;100.00
57562;BME280;43397;51.530;5.974;2023-03-21T10:17:43;59163.31;;;-145.90;100.00
57562;BME280;43397;51.530;5.974;2023-03-21T10:20:14;59163.31;;;-145.90;100.00
57562;BME280;43397;51.530;5.974;2023-03-21T10:22:40;59163.31;;;-145.90;100.00
57562;BME280;43397;51.530;5.974;2023-03-21T10:25:12;59163.31;;;-145.90;100.00
57562;BME280;43397;51.530;5.974;2023-03-21T10:27:39;59163.31;;;-145.90;100.00
57562;BME280;43397;51.530;5.974;2023-03-21T10:30:07;59163.31;;;-145.90;100.00
57562;BME280;43397;51.530;5.974;2023-03-21T10:32:33;59163.31;;;-145.90;100.00
57562;BME280;43397;51.530;5.974;2023-03-21T10:34:59;59163.31;;;-145.90;100.00
57562;BME280;43397;51.530;5.974;2023-03-21T10:37:26;59163.31;;;-145.90;100.00
57562;BME280;43397;51.530;5.974;2023-03-21T10:39:53;59163.31;;;-145.90;100.00
57562;BME280;43397;51.530;5.974;2023-03-21T10:42:23;59163.31;;;-145.90;100.00
57562;BME280;43397;51.530;5.974;2023-03-21T10:44:49;59163.31;;;-145.90;100.00
57562;BME280;43397;51.530;5.974;2023-03-21T10:47:19;59163.31;;;-145.90;100.00
57562;BME280;43397;51.530;5.974;2023-03-21T10:49:46;59163.31;;;-145.90;100.00
57562;BME280;43397;51.530;5.974;2023-03-21T10:52:14;59163.31;;;-145.90;100.00
57562;BME280;43397;51.530;5.974;2023-03-21T10:54:42;59163.31;;;-145.90;100.00
57562;BME280;43397;51.530;5.974;2023-03-21T10:57:09;59163.31;;;-145.90;100.00
57562;BME280;43397;51.530;5.974;2023-03-21T10:59:39;59163.31;;;-145.90;100.00
57562;BME280;43397;51.530;5.974;2023-03-21T11:02:15;59163.31;;;-145.90;100.00
57562;BME280;43397;51.530;5.974;2023-03-21T11:04:42;59163.31;;;-145.90;100.00
57562;BME280;43397;51.530;5.974;2023-03-21T11:07:12;59163.31;;;-145.90;100.00
57562;BME280;43397;51.530;5.974;2023-03-21T11:09:42;59163.31;;;-145.90;100.00
57562;BME280;43397;51.530;5.974;2023-03-21T11:12:10;59163.31;;;-145.90;100.00
57562;BME280;43397;51.530;5.974;2023-03-21T11:14:40;59163.31;;;-145.90;100.00
57562;BME280;43397;51.530;5.974;2023-03-21T11:17:19;59163.31;;;-145.90;100.00
57562;BME280;43397;51.530;5.974;2023-03-21T11:19:47;59163.31;;;-145.90;100.00
57562;BME280;43397;51.530;5.974;2023-03-21T11:22:13;59163.31;;;-145.90;100.00
57562;BME280;43397;51.530;5.974;2023-03-21T11:24:41;59163.31;;;-145.90;100.00
57562;BME280;43397;51.530;5.974;2023-03-21T11:27:07;59163.31;;;-145.90;100.00
57562;BME280;43397;51.530;5.974;2023-03-21T11:29:34;59163.31;;;-145.90;100.00
57562;BME280;43397;51.530;5.974;2023-03-21T11:32:09;59163.31;;;-145.90;100.00
57562;BME280;43397;51.530;5.974;2023-03-21T11:34:41;59163.31;;;-145.90;100.00
57562;BME280;43397;51.530;5.974;2023-03-21T11:37:18;59163.31;;;-145.90;100.00
57562;BME280;43397;51.530;5.974;2023-03-21T11:39:44;59163.31;;;-145.90;100.00
57562;BME280;43397;51.530;5.974;2023-03-21T11:42:39;59163.31;;;-145.90;100.00
57562;BME280;43397;51.530;5.974;2023-03-21T11:45:12;59163.31;;;-145.90;100.00
57562;BME280;43397;51.530;5.974;2023-03-21T11:47:39;59163.31;;;-145.90;100.00
57562;BME280;43397;51.530;5.974;2023-03-21T11:50:15;59163.31;;;-145.90;100.00
57562;BME280;43397;51.530;5.974;2023-03-21T14:31:37;100723.09;;;17.47;57.92
57562;BME280;43397;51.530;5.974;2023-03-21T14:34:25;100726.03;;;17.17;57.39
57562;BME280;43397;51.530;5.974;2023-03-21T14:37:11;100717.66;;;17.01;57.87
57562;BME280;43397;51.530;5.974;2023-03-21T14:39:59;100728.19;;;17.08;56.80
57562;BME280;43397;51.530;5.974;2023-03-21T14:42:46;100727.19;;;16.85;57.95
57562;BME280;43397;51.530;5.974;2023-03-21T14:45:34;100724.19;;;17.18;57.94
57562;BME280;43397;51.530;5.974;2023-03-21T14:48:28;100723.50;;;17.13;58.15
57562;BME280;43397;51.530;5.974;2023-03-21T14:51:14;100719.84;;;17.84;57.55
57562;BME280;43397;51.530;5.974;2023-03-21T14:54:00;100709.44;;;17.99;55.43
57562;BME280;43397;51.530;5.974;2023-03-21T14:56:48;100708.81;;;17.46;57.01
57562;BME280;43397;51.530;5.974;2023-03-21T14:59:36;100704.44;;;17.20;57.01
57562;BME280;43397;51.530;5.974;2023-03-21T15:02:24;100703.03;;;17.10;58.05
57562;BME280;43397;51.530;5.974;2023-03-21T15:05:17;100710.09;;;17.13;58.43
57562;BME280;43397;51.530;5.974;2023-03-21T15:08:08;100708.72;;;17.24;58.28
57562;BME280;43397;51.530;5.974;2023-03-21T15:10:59;100706.06;;;17.01;59.47
57562;BME280;43397;51.530;5.974;2023-03-21T15:13:47;100706.94;;;17.01;59.58
57562;BME280;43397;51.530;5.974;2023-03-21T15:16:34;100711.59;;;17.20;59.47
57562;BME280;43397;51.530;5.974;2023-03-21T15:19:27;100708.31;;;16.88;60.39
57562;BME280;43397;51.530;5.974;2023-03-21T15:22:18;100704.47;;;16.70;60.48
57562;BME280;43397;51.530;5.974;2023-03-21T15:25:07;100703.44;;;17.23;61.05